sensor_id;sensor_type;location;lat;lon;timestamp;pressure;altitude;pressure_sealevel;temperature;humidity
77631;BME280;66798;47.370;8.552;2023-09-08T00:00:47;96913.81;;;21.54;72.69
77631;BME280;66798;47.370;8.552;2023-09-08T00:03:12;96912.72;;;21.55;72.80
77631;BME280;66798;47.370;8.552;2023-09-08T00:05:38;96913.44;;;21.44;73.26
77631;BME280;66798;47.370;8.552;2023-09-08T00:08:03;96918.69;;;21.52;72.98
77631;BME280;66798;47.370;8.552;2023-09-08T00:10:29;96923.75;;;21.54;72.91
77631;BME280;66798;47.370;8.552;2023-09-08T00:12:54;96915.47;;;21.47;72.48
77631;BME280;66798;47.370;8.552;2023-09-08T00:15:20;96911.88;;;21.42;72.45
77631;BME280;66798;47.370;8.552;2023-09-08T00:17:45;96912.81;;;21.38;72.25
77631;BME280;66798;47.370;8.552;2023-09-08T00:20:12;96915.38;;;21.34;72.51
77631;BME280;66798;47.370;8.552;2023-09-08T00:22:39;96907.63;;;21.20;72.25
77631;BME280;66798;47.370;8.552;2023-09-08T00:25:05;96912.56;;;21.31;73.42
77631;BME280;66798;47.370;8.552;2023-09-08T00:27:31;96905.59;;;21.38;73.14
77631;BME280;66798;47.370;8.552;2023-09-08T00:29:57;96908.28;;;21.38;73.58
77631;BME280;66798;47.370;8.552;2023-09-08T00:32:23;96913.16;;;21.36;73.40
77631;BME280;66798;47.370;8.552;2023-09-08T00:34:48;96915.06;;;21.36;72.91
77631;BME280;66798;47.370;8.552;2023-09-08T00:37:14;96917.59;;;21.32;73.26
77631;BME280;66798;47.370;8.552;2023-09-08T00:39:39;96911.09;;;21.21;73.01
77631;BME280;66798;47.370;8.552;2023-09-08T00:42:06;96910.66;;;21.19;73.81
77631;BME280;66798;47.370;8.552;2023-09-08T00:44:32;96912.19;;;21.20;73.99
77631;BME280;66798;47.370;8.552;2023-09-08T00:46:58;96912.88;;;21.17;73.60
77631;BME280;66798;47.370;8.552;2023-09-08T00:49:24;96912.06;;;21.16;73.39
77631;BME280;66798;47.370;8.552;2023-09-08T00:51:51;96914.38;;;21.06;73.59
77631;BME280;66798;47.370;8.552;2023-09-08T00:54:17;96909.00;;;21.06;74.21
77631;BME280;66798;47.370;8.552;2023-09-08T00:56:44;96914.03;;;20.86;74.11
77631;BME280;66798;47.370;8.552;2023-09-08T00:59:12;96913.13;;;21.03;74.65
77631;BME280;66798;47.370;8.552;2023-09-08T01:01:37;96915.50;;;21.05;75.04
77631;BME280;66798;47.370;8.552;2023-09-08T01:04:03;96918.94;;;21.05;75.01
77631;BME280;66798;47.370;8.552;2023-09-08T01:06:30;96911.44;;;20.98;74.98
77631;BME280;66798;47.370;8.552;2023-09-08T01:08:58;96907.00;;;21.03;74.47
77631;BME280;66798;47.370;8.552;2023-09-08T01:11:25;96913.91;;;21.04;74.35
77631;BME280;66798;47.370;8.552;2023-09-08T01:13:51;96912.88;;;20.96;74.55
77631;BME280;66798;47.370;8.552;2023-09-08T01:16:16;96912.34;;;20.82;74.93
77631;BME280;66798;47.370;8.552;2023-09-08T01:18:43;96906.06;;;20.77;75.43
77631;BME280;66798;47.370;8.552;2023-09-08T01:21:22;96914.09;;;20.77;75.18
77631;BME280;66798;47.370;8.552;2023-09-08T01:24:27;96913.63;;;20.75;75.00
77631;BME280;66798;47.370;8.552;2023-09-08T01:26:58;96908.22;;;20.54;75.77
77631;BME280;66798;47.370;8.552;2023-09-08T01:29:25;96907.13;;;20.64;75.92
77631;BME280;66798;47.370;8.552;2023-09-08T01:31:51;96912.38;;;20.73;76.17
77631;BME280;66798;47.370;8.552;2023-09-08T01:34:18;96915.53;;;20.75;76.18
77631;BME280;66798;47.370;8.552;2023-09-08T01:36:45;96911.88;;;20.79;75.30
77631;BME280;66798;47.370;8.552;2023-09-08T01:39:11;96913.31;;;20.77;75.78
77631;BME280;66798;47.370;8.552;2023-09-08T01:41:36;96908.69;;;20.86;75.27
77631;BME280;66798;47.370;8.552;2023-09-08T01:44:01;96908.34;;;20.88;74.82
77631;BME280;66798;47.370;8.552;2023-09-08T01:46:33;96904.31;;;20.82;76.07
77631;BME280;66798;47.370;8.552;2023-09-08T01:48:59;96904.81;;;20.75;75.26
77631;BME280;66798;47.370;8.552;2023-09-08T01:51:24;96905.34;;;20.68;74.92
77631;BME280;66798;47.370;8.552;2023-09-08T01:53:50;96899.03;;;20.73;75.33
77631;BME280;66798;47.370;8.552;2023-09-08T01:56:15;96904.56;;;20.68;75.16
77631;BME280;66798;47.370;8.552;2023-09-08T01:58:41;96900.69;;;20.56;75.00
77631;BME280;66798;47.370;8.552;2023-09-08T02:01:06;96903.50;;;20.60;76.17
77631;BME280;66798;47.370;8.552;2023-09-08T02:03:32;96896.75;;;20.54;76.00
77631;BME280;66798;47.370;8.552;2023-09-08T02:05:58;96905.84;;;20.62;75.80
77631;BME280;66798;47.370;8.552;2023-09-08T02:08:23;96889.50;;;20.54;76.27
77631;BME280;66798;47.370;8.552;2023-09-08T02:10:49;96895.63;;;20.64;75.60
77631;BME280;66798;47.370;8.552;2023-09-08T02:13:14;96896.53;;;20.68;75.95
77631;BME280;66798;47.370;8.552;2023-09-08T02:15:39;96898.44;;;20.67;75.37
77631;BME280;66798;47.370;8.552;2023-09-08T02:18:07;96893.13;;;20.58;75.70
77631;BME280;66798;47.370;8.552;2023-09-08T02:20:32;96899.13;;;20.55;75.84
77631;BME280;66798;47.370;8.552;2023-09-08T02:23:04;96893.50;;;20.48;75.61
77631;BME280;66798;47.370;8.552;2023-09-08T02:25:30;96894.00;;;20.42;75.37
77631;BME280;66798;47.370;8.552;2023-09-08T02:27:55;96898.38;;;20.46;75.26
77631;BME280;66798;47.370;8.552;2023-09-08T02:30:21;96893.06;;;20.37;75.98
77631;BME280;66798;47.370;8.552;2023-09-08T02:32:46;96894.19;;;20.36;76.29
77631;BME280;66798;47.370;8.552;2023-09-08T02:35:12;96892.31;;;20.28;76.22
77631;BME280;66798;47.370;8.552;2023-09-08T02:37:37;96891.69;;;20.31;76.18
77631;BME280;66798;47.370;8.552;2023-09-08T02:40:03;96896.28;;;20.22;76.05
77631;BME280;66798;47.370;8.552;2023-09-08T02:42:29;96897.75;;;20.11;76.94
77631;BME280;66798;47.370;8.552;2023-09-08T02:44:54;96900.41;;;20.20;75.96
77631;BME280;66798;47.370;8.552;2023-09-08T02:47:20;96899.34;;;20.12;76.84
77631;BME280;66798;47.370;8.552;2023-09-08T02:49:45;96902.00;;;20.12;76.50
77631;BME280;66798;47.370;8.552;2023-09-08T02:52:10;96907.16;;;20.17;76.56
77631;BME280;66798;47.370;8.552;2023-09-08T02:54:36;96901.53;;;20.10;76.91
77631;BME280;66798;47.370;8.552;2023-09-08T02:57:01;96907.47;;;20.15;76.55
77631;BME280;66798;47.370;8.552;2023-09-08T02:59:27;96907.00;;;20.13;76.44
77631;BME280;66798;47.370;8.552;2023-09-08T03:01:52;96908.63;;;20.06;78.10
77631;BME280;66798;47.370;8.552;2023-09-08T03:04:18;96900.59;;;20.06;77.87
77631;BME280;66798;47.370;8.552;2023-09-08T03:06:43;96905.47;;;20.04;77.02
77631;BME280;66798;47.370;8.552;2023-09-08T03:09:09;96904.53;;;20.00;77.42
77631;BME280;66798;47.370;8.552;2023-09-08T03:11:34;96901.16;;;19.90;77.73
77631;BME280;66798;47.370;8.552;2023-09-08T03:14:00;96908.03;;;20.00;77.47
77631;BME280;66798;47.370;8.552;2023-09-08T03:16:25;96900.91;;;20.04;76.39
77631;BME280;66798;47.370;8.552;2023-09-08T03:18:50;96898.31;;;19.87;77.31
77631;BME280;66798;47.370;8.552;2023-09-08T03:21:16;96901.28;;;19.85;77.73
77631;BME280;66798;47.370;8.552;2023-09-08T03:23:43;96910.94;;;19.69;78.05
77631;BME280;66798;47.370;8.552;2023-09-08T03:26:09;96909.81;;;19.70;79.37
77631;BME280;66798;47.370;8.552;2023-09-08T03:28:36;96915.44;;;19.86;78.58
77631;BME280;66798;47.370;8.552;2023-09-08T03:31:04;96900.19;;;19.95;78.05
77631;BME280;66798;47.370;8.552;2023-09-08T03:33:30;96900.78;;;20.01;77.58
77631;BME280;66798;47.370;8.552;2023-09-08T03:35:55;96903.28;;;19.97;77.75
77631;BME280;66798;47.370;8.552;2023-09-08T03:38:21;96903.47;;;19.92;78.30
77631;BME280;66798;47.370;8.552;2023-09-08T03:40:47;96904.59;;;19.82;78.45
77631;BME280;66798;47.370;8.552;2023-09-08T03:43:13;96901.75;;;19.87;78.61
77631;BME280;66798;47.370;8.552;2023-09-08T03:45:38;96900.69;;;19.88;78.46
77631;BME280;66798;47.370;8.552;2023-09-08T03:48:04;96899.72;;;19.93;78.74
77631;BME280;66798;47.370;8.552;2023-09-08T03:50:29;96901.59;;;19.92;78.81
77631;BME280;66798;47.370;8.552;2023-09-08T03:52:55;96901.16;;;19.90;78.64
77631;BME280;66798;47.370;8.552;2023-09-08T03:55:21;96903.81;;;19.82;78.46
77631;BME280;66798;47.370;8.552;2023-09-08T03:57:46;96913.28;;;19.70;79.04
77631;BME280;66798;47.370;8.552;2023-09-08T04:00:13;96904.19;;;19.71;78.64
77631;BME280;66798;47.370;8.552;2023-09-08T04:02:44;96902.75;;;19.74;77.95
77631;BME280;66798;47.370;8.552;2023-09-08T04:05:10;96906.81;;;19.80;77.79
77631;BME280;66798;47.370;8.552;2023-09-08T04:07:36;96917.81;;;19.79;78.43
77631;BME280;66798;47.370;8.552;2023-09-08T04:10:01;96913.56;;;19.78;78.59
77631;BME280;66798;47.370;8.552;2023-09-08T04:12:28;96914.81;;;19.80;77.40
77631;BME280;66798;47.370;8.552;2023-09-08T04:14:53;96919.69;;;19.78;78.30
77631;BME280;66798;47.370;8.552;2023-09-08T04:17:19;96916.56;;;19.76;78.54
77631;BME280;66798;47.370;8.552;2023-09-08T04:19:44;96917.81;;;19.79;78.73
77631;BME280;66798;47.370;8.552;2023-09-08T04:22:10;96910.44;;;19.76;79.02
77631;BME280;66798;47.370;8.552;2023-09-08T04:24:36;96912.78;;;19.77;78.33
77631;BME280;66798;47.370;8.552;2023-09-08T04:27:03;96917.53;;;19.71;78.34
77631;BME280;66798;47.370;8.552;2023-09-08T04:29:28;96915.63;;;19.72;78.30
77631;BME280;66798;47.370;8.552;2023-09-08T04:31:54;96920.19;;;19.71;77.38
77631;BME280;66798;47.370;8.552;2023-09-08T04:34:19;96918.31;;;19.55;79.00
77631;BME280;66798;47.370;8.552;2023-09-08T04:36:45;96918.28;;;19.63;78.80
77631;BME280;66798;47.370;8.552;2023-09-08T04:39:10;96920.66;;;19.65;79.07
77631;BME280;66798;47.370;8.552;2023-09-08T04:41:37;96923.31;;;19.65;78.89
77631;BME280;66798;47.370;8.552;2023-09-08T04:44:03;96931.47;;;19.68;78.52
77631;BME280;66798;47.370;8.552;2023-09-08T04:46:28;96930.72;;;19.68;79.32
77631;BME280;66798;47.370;8.552;2023-09-08T04:48:54;96929.47;;;19.48;78.80
77631;BME280;66798;47.370;8.552;2023-09-08T04:51:19;96934.78;;;19.57;79.07
77631;BME280;66798;47.370;8.552;2023-09-08T04:53:45;96939.31;;;19.65;77.63
77631;BME280;66798;47.370;8.552;2023-09-08T04:56:10;96936.69;;;19.47;78.75
77631;BME280;66798;47.370;8.552;2023-09-08T04:58:35;96931.97;;;19.53;78.56
77631;BME280;66798;47.370;8.552;2023-09-08T05:01:01;96942.81;;;19.48;79.55
77631;BME280;66798;47.370;8.552;2023-09-08T05:03:27;96931.31;;;19.56;78.86
77631;BME280;66798;47.370;8.552;2023-09-08T05:05:52;96939.63;;;19.63;78.38
77631;BME280;66798;47.370;8.552;2023-09-08T05:08:17;96940.41;;;19.64;78.52
77631;BME280;66798;47.370;8.552;2023-09-08T05:10:46;96943.41;;;19.62;78.54
77631;BME280;66798;47.370;8.552;2023-09-08T05:13:11;96942.34;;;19.55;80.32
77631;BME280;66798;47.370;8.552;2023-09-08T05:15:36;96950.78;;;19.65;78.76
77631;BME280;66798;47.370;8.552;2023-09-08T05:18:05;96945.44;;;19.65;78.92
77631;BME280;66798;47.370;8.552;2023-09-08T05:20:30;96947.50;;;19.68;78.47
77631;BME280;66798;47.370;8.552;2023-09-08T05:22:56;96945.31;;;19.70;78.44
77631;BME280;66798;47.370;8.552;2023-09-08T05:25:21;96941.69;;;19.75;78.94
77631;BME280;66798;47.370;8.552;2023-09-08T05:27:46;96948.28;;;19.78;78.65
77631;BME280;66798;47.370;8.552;2023-09-08T05:30:12;96952.53;;;19.79;78.46
77631;BME280;66798;47.370;8.552;2023-09-08T05:32:38;96944.03;;;19.77;78.91
77631;BME280;66798;47.370;8.552;2023-09-08T05:35:03;96946.84;;;19.80;78.97
77631;BME280;66798;47.370;8.552;2023-09-08T05:37:29;96951.25;;;19.85;78.71
77631;BME280;66798;47.370;8.552;2023-09-08T05:39:54;96951.53;;;19.92;78.71
77631;BME280;66798;47.370;8.552;2023-09-08T05:42:20;96959.72;;;19.96;78.56
77631;BME280;66798;47.370;8.552;2023-09-08T05:44:45;96962.50;;;20.08;78.05
77631;BME280;66798;47.370;8.552;2023-09-08T05:47:13;96966.41;;;20.10;78.93
77631;BME280;66798;47.370;8.552;2023-09-08T05:49:38;96966.06;;;20.21;78.67
77631;BME280;66798;47.370;8.552;2023-09-08T05:52:04;96964.91;;;20.30;78.08
77631;BME280;66798;47.370;8.552;2023-09-08T05:54:29;96967.88;;;20.37;78.44
77631;BME280;66798;47.370;8.552;2023-09-08T05:56:55;96967.00;;;20.54;77.34
77631;BME280;66798;47.370;8.552;2023-09-08T05:59:21;96968.59;;;20.64;77.08
77631;BME280;66798;47.370;8.552;2023-09-08T06:01:47;96968.16;;;20.83;77.02
77631;BME280;66798;47.370;8.552;2023-09-08T06:04:12;96963.81;;;20.99;75.95
77631;BME280;66798;47.370;8.552;2023-09-08T06:06:38;96964.31;;;21.14;76.26
77631;BME280;66798;47.370;8.552;2023-09-08T06:09:03;96969.88;;;21.30;75.79
77631;BME280;66798;47.370;8.552;2023-09-08T06:11:31;96972.78;;;21.46;74.63
77631;BME280;66798;47.370;8.552;2023-09-08T06:13:56;96972.94;;;21.61;74.56
77631;BME280;66798;47.370;8.552;2023-09-08T06:16:25;96969.28;;;21.66;73.96
77631;BME280;66798;47.370;8.552;2023-09-08T06:18:50;96962.72;;;21.42;74.21
77631;BME280;66798;47.370;8.552;2023-09-08T06:21:16;96967.56;;;21.49;74.74
77631;BME280;66798;47.370;8.552;2023-09-08T06:23:41;96963.03;;;21.62;74.03
77631;BME280;66798;47.370;8.552;2023-09-08T06:26:07;96967.94;;;21.60;74.24
77631;BME280;66798;47.370;8.552;2023-09-08T06:28:32;96964.06;;;22.03;72.59
77631;BME280;66798;47.370;8.552;2023-09-08T06:30:58;96962.22;;;22.40;71.24
77631;BME280;66798;47.370;8.552;2023-09-08T06:33:23;96960.75;;;22.80;70.70
77631;BME280;66798;47.370;8.552;2023-09-08T06:35:49;96965.78;;;22.94;69.46
77631;BME280;66798;47.370;8.552;2023-09-08T06:38:14;96973.56;;;23.23;69.01
77631;BME280;66798;47.370;8.552;2023-09-08T06:40:39;96968.16;;;23.36;67.83
77631;BME280;66798;47.370;8.552;2023-09-08T06:43:05;96973.91;;;23.62;68.78
77631;BME280;66798;47.370;8.552;2023-09-08T06:45:30;96977.38;;;23.91;66.59
77631;BME280;66798;47.370;8.552;2023-09-08T06:47:56;96974.63;;;23.75;65.48
77631;BME280;66798;47.370;8.552;2023-09-08T06:50:22;96971.88;;;23.87;65.45
77631;BME280;66798;47.370;8.552;2023-09-08T06:52:51;96976.31;;;23.80;65.08
77631;BME280;66798;47.370;8.552;2023-09-08T06:55:16;96976.22;;;23.92;64.93
77631;BME280;66798;47.370;8.552;2023-09-08T06:57:43;96967.06;;;24.09;64.85
77631;BME280;66798;47.370;8.552;2023-09-08T07:00:08;96971.63;;;23.77;65.14
77631;BME280;66798;47.370;8.552;2023-09-08T07:02:40;96972.50;;;23.97;65.05
77631;BME280;66798;47.370;8.552;2023-09-08T07:05:06;96969.50;;;24.30;63.41
77631;BME280;66798;47.370;8.552;2023-09-08T07:07:35;96966.50;;;24.47;63.04
77631;BME280;66798;47.370;8.552;2023-09-08T07:10:02;96976.09;;;24.64;62.86
77631;BME280;66798;47.370;8.552;2023-09-08T07:12:28;96965.06;;;24.85;61.85
77631;BME280;66798;47.370;8.552;2023-09-08T07:14:53;96972.53;;;25.11;60.73
77631;BME280;66798;47.370;8.552;2023-09-08T07:17:18;96966.63;;;25.21;61.10
77631;BME280;66798;47.370;8.552;2023-09-08T07:19:45;96966.22;;;25.19;60.89
77631;BME280;66798;47.370;8.552;2023-09-08T07:22:10;96964.03;;;25.09;60.29
77631;BME280;66798;47.370;8.552;2023-09-08T07:24:36;96965.94;;;25.09;60.42
77631;BME280;66798;47.370;8.552;2023-09-08T07:27:01;96969.31;;;25.21;60.02
77631;BME280;66798;47.370;8.552;2023-09-08T07:29:27;96970.25;;;25.29;60.12
77631;BME280;66798;47.370;8.552;2023-09-08T07:31:53;96966.63;;;25.21;59.72
77631;BME280;66798;47.370;8.552;2023-09-08T07:34:18;96962.31;;;25.36;59.45
77631;BME280;66798;47.370;8.552;2023-09-08T07:36:44;96957.13;;;25.67;59.83
77631;BME280;66798;47.370;8.552;2023-09-08T07:39:09;96964.13;;;25.91;59.36
77631;BME280;66798;47.370;8.552;2023-09-08T07:41:35;96966.00;;;25.87;58.76
77631;BME280;66798;47.370;8.552;2023-09-08T07:44:01;96957.97;;;25.90;58.44
77631;BME280;66798;47.370;8.552;2023-09-08T07:46:27;96959.19;;;26.16;57.95
77631;BME280;66798;47.370;8.552;2023-09-08T07:48:53;96960.69;;;26.36;57.42
77631;BME280;66798;47.370;8.552;2023-09-08T07:51:18;96962.72;;;26.66;58.32
77631;BME280;66798;47.370;8.552;2023-09-08T07:53:43;96964.75;;;26.73;56.20
77631;BME280;66798;47.370;8.552;2023-09-08T07:56:09;96966.06;;;26.86;57.66
77631;BME280;66798;47.370;8.552;2023-09-08T07:58:34;96975.09;;;26.97;56.04
77631;BME280;66798;47.370;8.552;2023-09-08T08:01:00;96969.94;;;26.85;55.70
77631;BME280;66798;47.370;8.552;2023-09-08T08:03:25;96965.78;;;26.91;55.61
77631;BME280;66798;47.370;8.552;2023-09-08T08:05:51;96961.16;;;26.19;56.23
77631;BME280;66798;47.370;8.552;2023-09-08T08:08:16;96966.88;;;26.86;57.26
77631;BME280;66798;47.370;8.552;2023-09-08T08:10:43;96960.41;;;27.21;56.86
77631;BME280;66798;47.370;8.552;2023-09-08T08:13:08;96963.88;;;27.52;55.44
77631;BME280;66798;47.370;8.552;2023-09-08T08:15:36;96969.78;;;27.65;54.33
77631;BME280;66798;47.370;8.552;2023-09-08T08:18:06;96966.88;;;27.81;54.91
77631;BME280;66798;47.370;8.552;2023-09-08T08:20:32;96963.94;;;27.59;54.37
77631;BME280;66798;47.370;8.552;2023-09-08T08:23:04;96967.25;;;27.79;54.80
77631;BME280;66798;47.370;8.552;2023-09-08T08:25:29;96973.97;;;27.89;54.44
77631;BME280;66798;47.370;8.552;2023-09-08T08:27:55;96965.66;;;28.08;54.60
77631;BME280;66798;47.370;8.552;2023-09-08T08:30:22;96969.31;;;28.30;54.11
77631;BME280;66798;47.370;8.552;2023-09-08T08:32:47;96966.00;;;28.48;53.69
77631;BME280;66798;47.370;8.552;2023-09-08T08:35:13;96969.66;;;28.29;52.02
77631;BME280;66798;47.370;8.552;2023-09-08T08:37:41;96966.75;;;28.48;52.69
77631;BME280;66798;47.370;8.552;2023-09-08T08:40:09;96966.13;;;28.17;53.44
77631;BME280;66798;47.370;8.552;2023-09-08T08:42:36;96958.16;;;27.94;53.00
77631;BME280;66798;47.370;8.552;2023-09-08T08:45:02;96966.91;;;28.22;53.85
77631;BME280;66798;47.370;8.552;2023-09-08T08:47:28;96961.97;;;28.31;53.12
77631;BME280;66798;47.370;8.552;2023-09-08T08:49:56;96957.13;;;28.10;53.64
77631;BME280;66798;47.370;8.552;2023-09-08T08:52:25;96960.41;;;28.30;53.54
77631;BME280;66798;47.370;8.552;2023-09-08T08:54:50;96951.34;;;28.52;52.37
77631;BME280;66798;47.370;8.552;2023-09-08T08:57:16;96954.38;;;28.47;52.70
77631;BME280;66798;47.370;8.552;2023-09-08T08:59:42;96958.72;;;28.11;53.40
77631;BME280;66798;47.370;8.552;2023-09-08T09:02:09;96958.56;;;28.41;53.22
77631;BME280;66798;47.370;8.552;2023-09-08T09:04:38;96949.44;;;28.56;53.23
77631;BME280;66798;47.370;8.552;2023-09-08T09:07:06;96952.50;;;28.55;53.53
77631;BME280;66798;47.370;8.552;2023-09-08T09:09:32;96955.47;;;28.39;52.54
77631;BME280;66798;47.370;8.552;2023-09-08T09:11:57;96951.75;;;28.54;52.88
77631;BME280;66798;47.370;8.552;2023-09-08T09:14:24;96950.56;;;28.52;52.31
77631;BME280;66798;47.370;8.552;2023-09-08T09:16:49;96950.75;;;28.80;52.89
77631;BME280;66798;47.370;8.552;2023-09-08T09:19:20;96950.47;;;29.00;52.78
77631;BME280;66798;47.370;8.552;2023-09-08T09:21:51;96950.59;;;29.18;51.59
77631;BME280;66798;47.370;8.552;2023-09-08T09:24:48;96947.84;;;29.14;51.73
77631;BME280;66798;47.370;8.552;2023-09-08T09:27:14;96951.38;;;29.18;50.67
77631;BME280;66798;47.370;8.552;2023-09-08T09:29:48;96947.84;;;29.14;50.83
77631;BME280;66798;47.370;8.552;2023-09-08T09:32:14;96947.00;;;29.03;50.57
77631;BME280;66798;47.370;8.552;2023-09-08T09:34:58;96942.53;;;28.66;51.98
77631;BME280;66798;47.370;8.552;2023-09-08T09:37:26;96941.41;;;28.71;51.95
77631;BME280;66798;47.370;8.552;2023-09-08T09:39:53;96948.41;;;28.79;52.65
77631;BME280;66798;47.370;8.552;2023-09-08T09:42:20;96941.91;;;28.91;51.64
77631;BME280;66798;47.370;8.552;2023-09-08T09:44:51;96942.81;;;29.09;51.28
77631;BME280;66798;47.370;8.552;2023-09-08T09:47:16;96937.72;;;29.04;51.10
77631;BME280;66798;47.370;8.552;2023-09-08T09:49:46;96939.97;;;28.88;51.62
77631;BME280;66798;47.370;8.552;2023-09-08T09:52:13;96937.72;;;29.04;51.85
77631;BME280;66798;47.370;8.552;2023-09-08T09:54:41;96936.13;;;28.92;51.73
77631;BME280;66798;47.370;8.552;2023-09-08T09:57:10;96933.16;;;29.08;51.08
77631;BME280;66798;47.370;8.552;2023-09-08T09:59:40;96937.09;;;29.25;50.54
77631;BME280;66798;47.370;8.552;2023-09-08T10:02:12;96926.69;;;29.41;50.48
77631;BME280;66798;47.370;8.552;2023-09-08T10:04:41;96927.09;;;29.54;50.05
77631;BME280;66798;47.370;8.552;2023-09-08T10:07:08;96924.38;;;29.47;49.79
77631;BME280;66798;47.370;8.552;2023-09-08T10:09:35;96919.59;;;29.12;49.54
77631;BME280;66798;47.370;8.552;2023-09-08T10:12:04;96918.78;;;29.08;50.29
77631;BME280;66798;47.370;8.552;2023-09-08T10:14:31;96919.66;;;29.23;50.63
77631;BME280;66798;47.370;8.552;2023-09-08T10:17:02;96921.28;;;29.49;49.78
77631;BME280;66798;47.370;8.552;2023-09-08T10:19:28;96918.56;;;29.41;50.06
77631;BME280;66798;47.370;8.552;2023-09-08T10:22:00;96915.50;;;29.64;51.20
77631;BME280;66798;47.370;8.552;2023-09-08T10:24:33;96920.97;;;29.72;48.51
77631;BME280;66798;47.370;8.552;2023-09-08T10:27:10;96911.72;;;29.94;50.91
77631;BME280;66798;47.370;8.552;2023-09-08T10:29:40;96913.25;;;30.02;48.90
77631;BME280;66798;47.370;8.552;2023-09-08T10:32:08;96914.03;;;29.96;48.84
77631;BME280;66798;47.370;8.552;2023-09-08T10:34:36;96903.97;;;29.93;48.42
77631;BME280;66798;47.370;8.552;2023-09-08T10:37:02;96899.72;;;29.92;48.71
77631;BME280;66798;47.370;8.552;2023-09-08T10:44:41;96897.00;;;30.06;47.88
77631;BME280;66798;47.370;8.552;2023-09-08T10:47:06;96891.91;;;29.79;48.37
77631;BME280;66798;47.370;8.552;2023-09-08T10:49:35;96895.38;;;29.66;48.11
77631;BME280;66798;47.370;8.552;2023-09-08T10:52:08;96888.47;;;29.82;48.17
77631;BME280;66798;47.370;8.552;2023-09-08T10:54:47;96885.34;;;29.73;48.35
77631;BME280;66798;47.370;8.552;2023-09-08T10:57:18;96883.03;;;29.68;48.15
77631;BME280;66798;47.370;8.552;2023-09-08T11:02:38;96888.84;;;29.99;48.19
77631;BME280;66798;47.370;8.552;2023-09-08T11:05:09;96879.53;;;30.00;47.73
77631;BME280;66798;47.370;8.552;2023-09-08T11:07:36;96881.47;;;29.78;47.43
77631;BME280;66798;47.370;8.552;2023-09-08T11:10:03;96885.34;;;29.98;48.87
77631;BME280;66798;47.370;8.552;2023-09-08T11:12:28;96887.69;;;30.14;48.68
77631;BME280;66798;47.370;8.552;2023-09-08T11:14:55;96885.34;;;30.16;47.32
77631;BME280;66798;47.370;8.552;2023-09-08T11:17:25;96884.59;;;30.26;47.43
77631;BME280;66798;47.370;8.552;2023-09-08T11:19:51;96878.78;;;30.28;46.86
77631;BME280;66798;47.370;8.552;2023-09-08T11:22:17;96879.16;;;30.34;46.74
77631;BME280;66798;47.370;8.552;2023-09-08T11:24:44;96874.50;;;30.34;46.90
77631;BME280;66798;47.370;8.552;2023-09-08T11:27:11;96874.16;;;30.32;47.24
77631;BME280;66798;47.370;8.552;2023-09-08T11:29:38;96868.31;;;30.26;47.07
77631;BME280;66798;47.370;8.552;2023-09-08T11:32:07;96874.50;;;30.16;47.09
77631;BME280;66798;47.370;8.552;2023-09-08T11:34:34;96870.63;;;30.21;47.69
77631;BME280;66798;47.370;8.552;2023-09-08T11:37:07;96868.72;;;30.29;46.69
77631;BME280;66798;47.370;8.552;2023-09-08T11:39:36;96865.22;;;30.14;45.66
77631;BME280;66798;47.370;8.552;2023-09-08T11:42:02;96862.09;;;29.72;46.00
77631;BME280;66798;47.370;8.552;2023-09-08T11:44:28;96869.84;;;29.70;46.85
77631;BME280;66798;47.370;8.552;2023-09-08T11:46:54;96866.38;;;29.88;47.60
77631;BME280;66798;47.370;8.552;2023-09-08T11:49:20;96865.97;;;29.85;47.95
77631;BME280;66798;47.370;8.552;2023-09-08T11:51:49;96867.91;;;29.96;46.72
77631;BME280;66798;47.370;8.552;2023-09-08T11:54:15;96871.41;;;30.07;46.38
77631;BME280;66798;47.370;8.552;2023-09-08T11:56:41;96863.66;;;30.23;47.67
77631;BME280;66798;47.370;8.552;2023-09-08T11:59:08;96861.69;;;30.24;46.49
77631;BME280;66798;47.370;8.552;2023-09-08T12:01:33;96858.22;;;29.77;44.52
77631;BME280;66798;47.370;8.552;2023-09-08T12:03:59;96852.03;;;29.69;44.24
77631;BME280;66798;47.370;8.552;2023-09-08T12:06:28;96850.44;;;29.61;44.56
77631;BME280;66798;47.370;8.552;2023-09-08T12:08:56;96850.44;;;29.61;44.45
77631;BME280;66798;47.370;8.552;2023-09-08T12:11:21;96848.84;;;29.46;43.39
77631;BME280;66798;47.370;8.552;2023-09-08T12:13:47;96847.00;;;29.71;44.72
77631;BME280;66798;47.370;8.552;2023-09-08T12:16:20;96847.38;;;29.84;45.26
77631;BME280;66798;47.370;8.552;2023-09-08T12:18:48;96840.41;;;29.97;45.59
77631;BME280;66798;47.370;8.552;2023-09-08T12:21:15;96835.75;;;29.98;43.84
77631;BME280;66798;47.370;8.552;2023-09-08T12:23:51;96835.75;;;30.12;44.58
77631;BME280;66798;47.370;8.552;2023-09-08T12:26:17;96832.28;;;30.15;43.20
77631;BME280;66798;47.370;8.552;2023-09-08T12:28:43;96837.69;;;30.01;43.04
77631;BME280;66798;47.370;8.552;2023-09-08T12:31:09;96829.56;;;29.97;43.08
77631;BME280;66798;47.370;8.552;2023-09-08T12:33:35;96825.28;;;29.78;41.84
77631;BME280;66798;47.370;8.552;2023-09-08T12:36:14;96822.91;;;29.48;41.35
77631;BME280;66798;47.370;8.552;2023-09-08T12:38:41;96819.84;;;29.60;42.22
77631;BME280;66798;47.370;8.552;2023-09-08T12:41:06;96819.44;;;29.55;42.68
77631;BME280;66798;47.370;8.552;2023-09-08T12:43:32;96813.63;;;29.42;40.90
77631;BME280;66798;47.370;8.552;2023-09-08T12:45:57;96815.56;;;29.49;42.12
77631;BME280;66798;47.370;8.552;2023-09-08T12:48:23;96821.38;;;29.40;42.33
77631;BME280;66798;47.370;8.552;2023-09-08T12:50:49;96811.25;;;29.26;41.86
77631;BME280;66798;47.370;8.552;2023-09-08T12:53:15;96818.59;;;29.15;42.19
77631;BME280;66798;47.370;8.552;2023-09-08T12:55:43;96810.88;;;29.20;41.65
77631;BME280;66798;47.370;8.552;2023-09-08T12:58:08;96810.47;;;29.15;42.83
77631;BME280;66798;47.370;8.552;2023-09-08T13:00:34;96803.88;;;29.19;42.30
77631;BME280;66798;47.370;8.552;2023-09-08T13:02:59;96807.41;;;29.38;42.81
77631;BME280;66798;47.370;8.552;2023-09-08T13:05:24;96811.31;;;29.55;43.36